createdAt,value
2022-12-15T00:00:22.713Z,203.00
2022-12-15T00:01:06.526Z,203.00
2022-12-15T00:01:52.762Z,203.00
2022-12-15T00:02:36.331Z,203.00
2022-12-15T00:03:22.774Z,203.00
2022-12-15T00:04:08.133Z,203.00
2022-12-15T00:04:52.373Z,203.00
2022-12-15T00:05:36.121Z,203.00
2022-12-15T00:06:22.146Z,203.00
2022-12-15T00:07:06.887Z,203.00
2022-12-15T00:07:51.166Z,203.00
2022-12-15T00:08:38.167Z,203.00
2022-12-15T00:09:27.664Z,203.00
2022-12-15T00:10:08.319Z,203.00
2022-12-15T00:10:52.728Z,203.00
2022-12-15T00:11:37.866Z,203.00
2022-12-15T00:12:23.303Z,203.00
2022-12-15T00:13:08.710Z,203.00
2022-12-15T00:13:53.359Z,203.00
2022-12-15T00:14:38.314Z,203.00
2022-12-15T00:15:23.674Z,203.00
2022-12-15T00:16:08.019Z,203.00
2022-12-15T00:16:53.712Z,203.00
2022-12-15T00:17:38.878Z,203.00
2022-12-15T00:18:23.944Z,203.00
2022-12-15T00:19:09.056Z,203.00
2022-12-15T00:19:54.013Z,203.00
2022-12-15T00:20:39.280Z,203.00
2022-12-15T00:21:23.614Z,203.00
2022-12-15T00:22:07.445Z,203.00
2022-12-15T00:22:51.886Z,203.00
2022-12-15T00:23:37.861Z,203.00
2022-12-15T00:24:23.435Z,203.00
2022-12-15T00:25:07.671Z,203.00
2022-12-15T00:25:53.643Z,203.00
2022-12-15T00:26:38.496Z,203.00
2022-12-15T00:27:23.902Z,203.00
2022-12-15T00:28:09.130Z,203.00
2022-12-15T00:28:53.907Z,203.00
2022-12-15T00:29:38.127Z,203.00
2022-12-15T00:30:22.957Z,203.00
2022-12-15T00:31:08.580Z,203.00
2022-12-15T00:31:54.769Z,203.00
2022-12-15T00:32:38.795Z,203.00
2022-12-15T00:33:23.972Z,203.00
2022-12-15T00:34:08.989Z,203.00
2022-12-15T00:34:53.811Z,203.00
2022-12-15T00:35:38.160Z,203.00
2022-12-15T00:36:23.743Z,203.00
2022-12-15T00:37:09.237Z,203.00
2022-12-15T00:37:54.445Z,203.00
2022-12-15T00:38:40.225Z,203.00
2022-12-15T00:39:24.682Z,203.00
2022-12-15T00:40:10.032Z,203.00
2022-12-15T00:40:53.761Z,203.00
2022-12-15T00:41:41.430Z,203.00
2022-12-15T00:42:24.583Z,203.00
2022-12-15T00:43:08.612Z,203.00
2022-12-15T00:43:55.231Z,203.00
2022-12-15T00:44:39.745Z,203.00
2022-12-15T00:45:25.728Z,203.00
2022-12-15T00:46:10.501Z,203.00
2022-12-15T00:46:55.805Z,203.00
2022-12-15T00:47:41.071Z,203.00
2022-12-15T00:48:26.056Z,203.00
2022-12-15T00:49:11.531Z,203.00
2022-12-15T00:49:53.923Z,203.00
2022-12-15T00:50:40.580Z,203.00
2022-12-15T00:51:25.980Z,203.00
2022-12-15T00:52:10.731Z,203.00
2022-12-15T00:52:56.399Z,203.00
2022-12-15T00:53:41.422Z,203.00
2022-12-15T00:54:25.488Z,203.00
2022-12-15T00:55:09.953Z,203.00
2022-12-15T00:55:56.959Z,203.00
2022-12-15T00:56:40.445Z,203.00
2022-12-15T00:57:26.015Z,203.00
2022-12-15T00:58:11.695Z,203.00
2022-12-15T00:58:56.748Z,203.00
2022-12-15T00:59:41.722Z,203.00
2022-12-15T01:00:26.154Z,203.00
2022-12-15T01:01:12.012Z,203.00
2022-12-15T01:01:56.777Z,203.00
2022-12-15T01:02:41.955Z,203.00
2022-12-15T01:03:27.093Z,203.00
2022-12-15T01:04:12.119Z,203.00
2022-12-15T01:04:57.658Z,203.00
2022-12-15T01:05:41.945Z,203.00
2022-12-15T01:06:26.799Z,203.00
2022-12-15T01:07:11.979Z,203.00
2022-12-15T01:07:56.910Z,203.00
2022-12-15T01:08:42.087Z,203.00
2022-12-15T01:09:27.328Z,203.00
2022-12-15T01:10:12.079Z,203.00
2022-12-15T01:10:56.624Z,203.00
2022-12-15T01:11:41.885Z,203.00
2022-12-15T01:12:26.239Z,203.00
2022-12-15T01:13:10.973Z,203.00
2022-12-15T01:13:57.779Z,203.00
2022-12-15T01:14:42.716Z,203.00
2022-12-15T01:15:27.758Z,203.00
2022-12-15T01:16:12.145Z,203.00
2022-12-15T01:16:57.703Z,203.00
2022-12-15T01:17:42.333Z,203.00
2022-12-15T01:18:26.978Z,203.00
2022-12-15T01:19:10.777Z,203.00
2022-12-15T01:19:57.296Z,203.00
2022-12-15T01:20:41.545Z,203.00
2022-12-15T01:21:25.512Z,203.00
2022-12-15T01:22:09.674Z,203.00
2022-12-15T01:22:54.447Z,203.00
2022-12-15T01:23:39.918Z,203.00
2022-12-15T01:24:25.237Z,203.00
2022-12-15T01:25:10.153Z,203.00
2022-12-15T01:25:57.035Z,203.00
2022-12-15T01:26:39.836Z,203.00
2022-12-15T01:27:25.710Z,203.00
2022-12-15T01:28:11.081Z,203.00
2022-12-15T01:28:55.967Z,203.00
2022-12-15T01:29:41.395Z,203.00
2022-12-15T01:30:25.364Z,203.00
2022-12-15T01:31:11.844Z,203.00
2022-12-15T01:31:56.940Z,203.00
2022-12-15T01:32:45.718Z,203.00
2022-12-15T01:33:26.569Z,203.00
2022-12-15T01:34:10.811Z,203.00
2022-12-15T01:34:56.175Z,203.00
2022-12-15T01:35:41.620Z,203.00
2022-12-15T01:36:25.265Z,203.00
2022-12-15T01:37:13.350Z,203.00
2022-12-15T01:37:56.312Z,203.00
2022-12-15T01:38:40.953Z,203.00
2022-12-15T01:39:26.317Z,203.00
2022-12-15T01:40:10.662Z,203.00
2022-12-15T01:40:57.560Z,203.00
2022-12-15T01:41:42.708Z,203.00
2022-12-15T01:42:29.702Z,203.00
2022-12-15T01:43:14.108Z,203.00
2022-12-15T01:43:58.900Z,203.00
2022-12-15T01:44:44.466Z,203.00
2022-12-15T01:45:29.833Z,203.00
2022-12-15T01:46:15.133Z,203.00
2022-12-15T01:47:00.384Z,203.00
2022-12-15T01:47:44.285Z,203.00
2022-12-15T01:48:29.577Z,203.00
2022-12-15T01:49:15.339Z,203.00
2022-12-15T01:50:00.480Z,203.00
2022-12-15T01:50:44.511Z,203.00
2022-12-15T01:51:29.770Z,203.00
2022-12-15T01:52:15.139Z,203.00
2022-12-15T01:53:00.500Z,203.00
2022-12-15T01:53:44.833Z,203.00
2022-12-15T01:54:30.201Z,203.00
2022-12-15T01:55:15.665Z,203.00
2022-12-15T01:56:00.432Z,203.00
2022-12-15T01:56:45.890Z,203.00
2022-12-15T01:57:29.444Z,203.00
2022-12-15T01:58:14.592Z,203.00
2022-12-15T01:59:00.229Z,203.00
2022-12-15T01:59:45.390Z,203.00
2022-12-15T02:00:30.615Z,203.00
2022-12-15T02:01:15.989Z,203.00
2022-12-15T02:02:01.039Z,203.00
2022-12-15T02:02:47.450Z,203.00
2022-12-15T02:03:30.428Z,203.00
2022-12-15T02:04:15.806Z,203.00
2022-12-15T02:05:01.108Z,203.00
2022-12-15T02:05:46.777Z,203.00
2022-12-15T02:06:31.062Z,203.00
2022-12-15T02:07:16.473Z,203.00
2022-12-15T02:08:01.118Z,203.00
2022-12-15T02:08:45.557Z,203.00
2022-12-15T02:09:31.446Z,203.00
2022-12-15T02:10:16.595Z,203.00
2022-12-15T02:11:01.394Z,203.00
2022-12-15T02:11:47.014Z,203.00
2022-12-15T02:12:32.006Z,203.00
2022-12-15T02:13:16.184Z,203.00
2022-12-15T02:14:01.567Z,203.00
2022-12-15T02:14:46.941Z,203.00
2022-12-15T02:15:31.521Z,203.00
2022-12-15T02:16:16.844Z,203.00
2022-12-15T02:17:02.026Z,203.00
2022-12-15T02:17:47.258Z,203.00
2022-12-15T02:18:32.162Z,203.00
2022-12-15T02:19:16.584Z,203.00
2022-12-15T02:20:01.416Z,203.00
2022-12-15T02:20:46.765Z,203.00
2022-12-15T02:21:32.862Z,203.00
2022-12-15T02:22:17.085Z,203.00
2022-12-15T02:23:02.552Z,203.00
2022-12-15T02:23:47.196Z,203.00
2022-12-15T02:24:32.312Z,203.00
2022-12-15T02:25:16.282Z,203.00
2022-12-15T02:26:02.061Z,203.00
2022-12-15T02:26:44.350Z,203.00
2022-12-15T02:27:29.195Z,203.00
2022-12-15T02:28:13.971Z,203.00
2022-12-15T02:29:00.100Z,203.00
2022-12-15T02:29:44.266Z,203.00
2022-12-15T02:30:29.233Z,203.00
2022-12-15T02:31:14.287Z,203.00
2022-12-15T02:31:59.260Z,203.00
2022-12-15T02:32:44.907Z,203.00
2022-12-15T02:33:29.856Z,203.00
2022-12-15T02:34:14.812Z,203.00
2022-12-15T02:34:59.765Z,203.00
2022-12-15T02:35:44.516Z,203.00
2022-12-15T02:36:29.580Z,203.00
2022-12-15T02:37:14.626Z,203.00
2022-12-15T02:37:59.784Z,203.00
2022-12-15T02:38:45.156Z,203.00
2022-12-15T02:39:29.802Z,203.00
2022-12-15T02:40:14.956Z,203.00
2022-12-15T02:40:59.937Z,203.00
2022-12-15T02:41:45.375Z,203.00
2022-12-15T02:42:30.533Z,203.00
2022-12-15T02:43:15.187Z,203.00
2022-12-15T02:43:59.857Z,203.00
2022-12-15T02:44:44.988Z,203.00
2022-12-15T02:45:31.694Z,203.00
2022-12-15T02:46:14.957Z,203.00
2022-12-15T02:46:59.676Z,203.00
2022-12-15T02:47:45.951Z,203.00
2022-12-15T02:48:32.683Z,203.00
2022-12-15T02:49:17.481Z,203.00
2022-12-15T02:50:03.865Z,203.00
2022-12-15T02:50:47.299Z,203.00
2022-12-15T02:51:33.191Z,203.00
2022-12-15T02:52:17.552Z,203.00
2022-12-15T02:53:03.951Z,203.00
2022-12-15T02:53:47.307Z,203.00
2022-12-15T02:54:31.469Z,203.00
2022-12-15T02:55:17.209Z,203.00
2022-12-15T02:56:04.165Z,203.00
2022-12-15T02:56:46.913Z,203.00
2022-12-15T02:57:34.533Z,203.00
2022-12-15T02:58:18.865Z,203.00
2022-12-15T02:59:04.747Z,203.00
2022-12-15T02:59:48.671Z,203.00
2022-12-15T03:00:34.368Z,203.00
2022-12-15T03:01:18.737Z,203.00
2022-12-15T03:02:04.927Z,203.00
2022-12-15T03:02:49.827Z,203.00
2022-12-15T03:03:35.366Z,203.00
2022-12-15T03:04:20.073Z,203.00
2022-12-15T03:05:04.993Z,203.00
2022-12-15T03:05:49.946Z,203.00
2022-12-15T03:06:35.122Z,203.00
2022-12-15T03:07:18.110Z,203.00
2022-12-15T03:08:05.223Z,203.00
2022-12-15T03:08:50.588Z,203.00
2022-12-15T03:09:35.898Z,203.00
2022-12-15T03:10:20.697Z,203.00
2022-12-15T03:11:05.342Z,203.00
2022-12-15T03:11:50.195Z,203.00
2022-12-15T03:12:35.888Z,203.00
2022-12-15T03:13:21.019Z,203.00
2022-12-15T03:14:06.080Z,203.00
2022-12-15T03:14:51.144Z,203.00
2022-12-15T03:15:36.398Z,203.00
2022-12-15T03:16:21.403Z,203.00
2022-12-15T03:17:06.203Z,203.00
2022-12-15T03:17:51.360Z,203.00
2022-12-15T03:18:36.519Z,203.00
2022-12-15T03:19:21.587Z,203.00
2022-12-15T03:20:06.590Z,203.00
2022-12-15T03:20:51.687Z,203.00
2022-12-15T03:21:36.849Z,203.00
2022-12-15T03:22:21.107Z,203.00
2022-12-15T03:23:06.873Z,203.00
2022-12-15T03:23:51.873Z,203.00
2022-12-15T03:24:37.085Z,203.00
2022-12-15T03:25:21.924Z,203.00
2022-12-15T03:26:07.304Z,203.00
2022-12-15T03:26:52.240Z,203.00
2022-12-15T03:27:37.091Z,203.00
2022-12-15T03:28:22.356Z,203.00
2022-12-15T03:29:07.306Z,203.00
2022-12-15T03:29:52.368Z,203.00
2022-12-15T03:30:36.295Z,203.00
2022-12-15T03:31:21.467Z,203.00
2022-12-15T03:32:06.265Z,203.00
2022-12-15T03:32:51.463Z,203.00
2022-12-15T03:33:36.425Z,203.00
2022-12-15T03:34:22.542Z,203.00
2022-12-15T03:35:07.160Z,203.00
2022-12-15T03:35:52.514Z,203.00
2022-12-15T03:36:37.055Z,203.00
2022-12-15T03:37:22.620Z,203.00
2022-12-15T03:38:07.888Z,203.00
2022-12-15T03:38:52.736Z,203.00
2022-12-15T03:39:37.315Z,203.00
2022-12-15T03:40:22.749Z,203.00
2022-12-15T03:41:07.605Z,203.00
2022-12-15T03:41:53.163Z,203.00
2022-12-15T03:42:38.036Z,203.00
2022-12-15T03:43:23.284Z,203.00
2022-12-15T03:44:08.116Z,203.00
2022-12-15T03:44:53.187Z,203.00
2022-12-15T03:45:38.279Z,203.00
2022-12-15T03:46:23.486Z,203.00
2022-12-15T03:47:08.358Z,203.00
2022-12-15T03:47:53.425Z,203.00
2022-12-15T03:48:38.364Z,203.00
2022-12-15T03:49:23.941Z,203.00
2022-12-15T03:50:08.379Z,203.00
2022-12-15T03:50:53.488Z,203.00
2022-12-15T03:51:38.903Z,203.00
2022-12-15T03:52:23.653Z,203.00
2022-12-15T03:53:08.444Z,203.00
2022-12-15T03:53:53.648Z,203.00
2022-12-15T03:54:38.716Z,203.00
2022-12-15T03:55:23.678Z,203.00
2022-12-15T03:56:08.749Z,203.00
2022-12-15T03:56:53.987Z,203.00
2022-12-15T03:57:38.939Z,203.00
2022-12-15T03:58:24.005Z,203.00
2022-12-15T03:59:09.055Z,203.00
2022-12-15T03:59:54.018Z,203.00
2022-12-15T04:00:38.755Z,203.00
2022-12-15T04:01:24.237Z,203.00
2022-12-15T04:02:09.118Z,203.00
2022-12-15T04:02:51.368Z,203.00
2022-12-15T04:03:36.524Z,203.00
2022-12-15T04:04:21.374Z,203.00
2022-12-15T04:05:08.480Z,203.00
2022-12-15T04:05:54.016Z,203.00
2022-12-15T04:06:39.106Z,203.00
2022-12-15T04:07:24.264Z,203.00
2022-12-15T04:08:09.332Z,203.00
2022-12-15T04:08:54.378Z,203.00
2022-12-15T04:09:39.468Z,203.00
2022-12-15T04:10:26.192Z,203.00
2022-12-15T04:11:09.344Z,203.00
2022-12-15T04:11:54.129Z,203.00
2022-12-15T04:12:39.151Z,203.00
2022-12-15T04:13:23.484Z,203.00
2022-12-15T04:14:09.258Z,203.00
2022-12-15T04:14:54.112Z,203.00
2022-12-15T04:15:39.385Z,203.00
2022-12-15T04:16:25.448Z,203.00
2022-12-15T04:17:10.446Z,203.00
2022-12-15T04:17:55.469Z,203.00
2022-12-15T04:18:40.519Z,203.00
2022-12-15T04:19:25.685Z,203.00
2022-12-15T04:20:10.826Z,203.00
2022-12-15T04:20:55.585Z,203.00
2022-12-15T04:21:40.942Z,203.00
2022-12-15T04:22:26.015Z,203.00
2022-12-15T04:23:11.374Z,203.00
2022-12-15T04:23:55.815Z,203.00
2022-12-15T04:24:41.380Z,203.00
2022-12-15T04:25:26.141Z,203.00
2022-12-15T04:26:10.688Z,203.00
2022-12-15T04:26:56.449Z,203.00
2022-12-15T04:27:41.410Z,203.00
2022-12-15T04:28:26.376Z,203.00
2022-12-15T04:29:11.519Z,203.00
2022-12-15T04:29:56.379Z,203.00
2022-12-15T04:30:41.565Z,203.00
2022-12-15T04:31:26.662Z,203.00
2022-12-15T04:32:11.759Z,203.00
2022-12-15T04:32:56.856Z,203.00
2022-12-15T04:33:42.576Z,203.00
2022-12-15T04:34:26.916Z,203.00
2022-12-15T04:35:11.965Z,203.00
2022-12-15T04:35:55.815Z,203.00
2022-12-15T04:36:42.080Z,203.00
2022-12-15T04:37:27.141Z,203.00
2022-12-15T04:38:12.397Z,203.00
2022-12-15T04:38:56.342Z,203.00
2022-12-15T04:39:42.404Z,203.00
2022-12-15T04:40:27.463Z,203.00
2022-12-15T04:41:11.806Z,203.00
2022-12-15T04:41:56.756Z,203.00
2022-12-15T04:42:42.632Z,203.00
2022-12-15T04:43:28.602Z,203.00
2022-12-15T04:44:11.774Z,203.00
2022-12-15T04:44:57.598Z,203.00
2022-12-15T04:45:42.987Z,203.00
2022-12-15T04:46:27.790Z,203.00
2022-12-15T04:47:12.154Z,203.00
2022-12-15T04:47:57.734Z,203.00
2022-12-15T04:48:42.877Z,203.00
2022-12-15T04:49:27.834Z,203.00
2022-12-15T04:50:12.498Z,203.00
2022-12-15T04:50:57.231Z,203.00
2022-12-15T04:51:43.002Z,203.00
2022-12-15T04:52:27.959Z,203.00
2022-12-15T04:53:13.114Z,203.00
2022-12-15T04:53:58.178Z,203.00
2022-12-15T04:54:43.434Z,203.00
2022-12-15T04:55:28.899Z,203.00
2022-12-15T04:56:18.188Z,203.00
2022-12-15T04:56:58.193Z,203.00
2022-12-15T04:57:43.143Z,203.00
2022-12-15T04:58:28.462Z,203.00
2022-12-15T04:59:13.310Z,203.00
2022-12-15T04:59:58.416Z,203.00
2022-12-15T05:00:43.685Z,203.00
2022-12-15T05:01:28.585Z,203.00
2022-12-15T05:02:13.892Z,203.00
2022-12-15T05:02:58.349Z,203.00
2022-12-15T05:03:43.616Z,203.00
2022-12-15T05:04:28.794Z,203.00
2022-12-15T05:05:13.613Z,203.00
2022-12-15T05:05:58.562Z,203.00
2022-12-15T05:06:43.531Z,203.00
2022-12-15T05:07:28.170Z,203.00
2022-12-15T05:08:13.322Z,203.00
2022-12-15T05:08:57.868Z,203.00
2022-12-15T05:09:43.843Z,203.00
2022-12-15T05:10:29.210Z,203.00
2022-12-15T05:11:14.184Z,203.00
2022-12-15T05:11:59.738Z,203.00
2022-12-15T05:12:44.171Z,203.00
2022-12-15T05:13:29.698Z,203.00
2022-12-15T05:14:14.081Z,203.00
2022-12-15T05:14:59.138Z,203.00
2022-12-15T05:15:44.821Z,203.00
2022-12-15T05:16:29.970Z,203.00
2022-12-15T05:17:14.966Z,203.00
2022-12-15T05:17:59.774Z,203.00
2022-12-15T05:18:44.716Z,203.00
2022-12-15T05:19:29.674Z,203.00
2022-12-15T05:20:14.945Z,203.00
2022-12-15T05:21:00.097Z,203.00
2022-12-15T05:21:45.165Z,203.00
2022-12-15T05:22:30.113Z,203.00
2022-12-15T05:23:15.037Z,203.00
2022-12-15T05:24:00.742Z,203.00
2022-12-15T05:24:45.282Z,203.00
2022-12-15T05:25:30.336Z,203.00
2022-12-15T05:26:15.600Z,203.00
2022-12-15T05:27:00.351Z,203.00
2022-12-15T05:27:44.378Z,203.00
2022-12-15T05:28:30.051Z,203.00
2022-12-15T05:29:13.678Z,203.00
2022-12-15T05:29:59.684Z,203.00
2022-12-15T05:30:43.578Z,203.00
2022-12-15T05:31:29.396Z,203.00
2022-12-15T05:32:14.415Z,203.00
2022-12-15T05:32:59.678Z,203.00
2022-12-15T05:33:45.446Z,203.00
2022-12-15T05:34:31.487Z,203.00
2022-12-15T05:35:16.175Z,203.00
2022-12-15T05:36:00.827Z,203.00
2022-12-15T05:36:45.879Z,203.00
2022-12-15T05:37:31.345Z,203.00
2022-12-15T05:38:15.884Z,203.00
2022-12-15T05:39:01.251Z,203.00
2022-12-15T05:39:45.905Z,203.00
2022-12-15T05:40:31.472Z,203.00
2022-12-15T05:41:16.107Z,203.00
2022-12-15T05:42:00.254Z,203.00
2022-12-15T05:42:50.251Z,203.00
2022-12-15T05:43:29.634Z,203.00
2022-12-15T05:44:15.112Z,203.00
2022-12-15T05:45:00.572Z,203.00
2022-12-15T05:45:45.322Z,203.00
2022-12-15T05:46:31.132Z,203.00
2022-12-15T05:47:17.004Z,203.00
2022-12-15T05:48:02.134Z,203.00
2022-12-15T05:48:46.681Z,203.00
2022-12-15T05:49:31.741Z,203.00
2022-12-15T05:50:15.560Z,203.00
2022-12-15T05:50:59.904Z,203.00
2022-12-15T05:51:44.240Z,203.00
2022-12-15T05:52:31.033Z,203.00
2022-12-15T05:53:15.577Z,203.00
2022-12-15T05:54:00.845Z,203.00
2022-12-15T05:54:44.779Z,203.00
2022-12-15T05:55:30.851Z,203.00
2022-12-15T05:56:14.389Z,203.00
2022-12-15T05:56:58.202Z,180.00
2022-12-15T05:57:43.975Z,210.00
2022-12-15T05:58:30.466Z,210.00
2022-12-15T05:59:15.652Z,210.00
2022-12-15T05:59:59.074Z,210.00
2022-12-15T06:00:47.173Z,210.00
2022-12-15T06:01:31.145Z,210.00
2022-12-15T06:02:14.908Z,210.00
2022-12-15T06:03:00.869Z,210.00
2022-12-15T06:03:45.142Z,210.00
2022-12-15T06:04:30.698Z,210.00
2022-12-15T06:05:15.974Z,210.00
2022-12-15T06:06:01.337Z,210.00
2022-12-15T06:06:46.804Z,210.00
2022-12-15T06:07:31.763Z,210.00
2022-12-15T06:08:14.410Z,210.00
2022-12-15T06:09:00.343Z,210.00
2022-12-15T06:09:44.194Z,210.00
2022-12-15T06:10:29.219Z,210.00
2022-12-15T06:11:13.995Z,206.00
2022-12-15T06:11:59.020Z,218.00
2022-12-15T06:12:47.990Z,218.00
2022-12-15T06:13:33.830Z,218.00
2022-12-15T06:14:18.488Z,218.00
2022-12-15T06:15:03.662Z,218.00
2022-12-15T06:15:48.651Z,218.00
2022-12-15T06:16:33.740Z,218.00
2022-12-15T06:17:18.717Z,218.00
2022-12-15T06:18:03.775Z,218.00
2022-12-15T06:18:49.978Z,218.00
2022-12-15T06:19:33.695Z,218.00
2022-12-15T06:20:18.969Z,218.00
2022-12-15T06:21:03.897Z,218.00
2022-12-15T06:21:48.953Z,218.00
2022-12-15T06:22:34.006Z,218.00
2022-12-15T06:23:19.171Z,218.00
2022-12-15T06:24:04.221Z,218.00
2022-12-15T06:24:49.187Z,218.00
2022-12-15T06:25:32.804Z,218.00
2022-12-15T06:26:18.267Z,218.00
2022-12-15T06:27:03.938Z,218.00
2022-12-15T06:27:49.715Z,218.00
2022-12-15T06:28:34.875Z,218.00
2022-12-15T06:29:19.926Z,218.00
2022-12-15T06:30:05.130Z,218.00
2022-12-15T06:30:50.247Z,218.00
2022-12-15T06:31:35.365Z,218.00
2022-12-15T06:32:20.076Z,218.00
2022-12-15T06:33:05.111Z,218.00
2022-12-15T06:33:52.486Z,218.00
2022-12-15T06:34:35.324Z,218.00
2022-12-15T06:35:20.173Z,218.00
2022-12-15T06:36:05.334Z,218.00
2022-12-15T06:36:50.350Z,218.00
2022-12-15T06:37:35.650Z,218.00
2022-12-15T06:38:20.417Z,218.00
2022-12-15T06:39:06.267Z,218.00
2022-12-15T06:39:50.766Z,218.00
2022-12-15T06:40:38.041Z,218.00
2022-12-15T06:41:20.731Z,218.00
2022-12-15T06:42:05.471Z,218.00
2022-12-15T06:42:48.795Z,218.00
2022-12-15T06:43:32.824Z,218.00
2022-12-15T06:44:17.225Z,218.00
2022-12-15T06:45:03.776Z,218.00
2022-12-15T06:45:49.885Z,218.00
2022-12-15T06:46:32.605Z,218.00
2022-12-15T06:47:19.234Z,218.00
2022-12-15T06:48:04.495Z,218.00
2022-12-15T06:48:48.630Z,218.00
2022-12-15T06:49:32.759Z,218.00
2022-12-15T06:50:18.695Z,218.00
2022-12-15T06:51:07.330Z,218.00
2022-12-15T06:51:49.784Z,218.00
2022-12-15T06:52:34.648Z,218.00
2022-12-15T06:53:18.870Z,218.00
2022-12-15T06:54:02.386Z,218.00
2022-12-15T06:54:49.185Z,218.00
2022-12-15T06:55:34.655Z,218.00
2022-12-15T06:56:18.474Z,218.00
2022-12-15T06:57:03.227Z,218.00
2022-12-15T06:57:48.674Z,218.00
2022-12-15T06:58:33.756Z,218.00
2022-12-15T06:59:17.664Z,218.00
2022-12-15T07:00:03.450Z,218.00
2022-12-15T07:00:48.301Z,218.00
2022-12-15T07:01:32.908Z,218.00
2022-12-15T07:02:21.114Z,218.00
2022-12-15T07:03:04.094Z,218.00
2022-12-15T07:03:48.454Z,218.00
2022-12-15T07:04:33.097Z,218.00
2022-12-15T07:05:18.330Z,218.00
2022-12-15T07:06:03.284Z,218.00
2022-12-15T07:06:48.267Z,218.00
2022-12-15T07:07:33.432Z,218.00
2022-12-15T07:08:18.412Z,218.00
2022-12-15T07:09:03.409Z,218.00
2022-12-15T07:09:48.486Z,218.00
2022-12-15T07:10:33.525Z,218.00
2022-12-15T07:11:18.787Z,218.00
2022-12-15T07:12:04.162Z,218.00
2022-12-15T07:12:48.694Z,218.00
2022-12-15T07:13:34.381Z,218.00
2022-12-15T07:14:18.498Z,218.00
2022-12-15T07:15:03.012Z,186.00
2022-12-15T07:15:49.061Z,186.00
2022-12-15T07:16:33.952Z,237.00
2022-12-15T07:17:18.831Z,257.00
2022-12-15T07:18:04.095Z,257.00
2022-12-15T07:18:49.065Z,257.00
2022-12-15T07:19:33.833Z,257.00
2022-12-15T07:20:21.823Z,257.00
2022-12-15T07:21:04.789Z,257.00
2022-12-15T07:21:49.372Z,257.00
2022-12-15T07:22:34.324Z,257.00
2022-12-15T07:23:29.468Z,257.00
2022-12-15T07:24:04.775Z,257.00
2022-12-15T07:24:49.909Z,257.00
2022-12-15T07:25:34.350Z,257.00
2022-12-15T07:26:19.297Z,257.00
2022-12-15T07:27:04.819Z,257.00
2022-12-15T07:27:50.852Z,257.00
2022-12-15T07:28:34.806Z,257.00
2022-12-15T07:29:23.250Z,237.00
2022-12-15T07:30:04.884Z,237.00
2022-12-15T07:30:49.889Z,237.00
2022-12-15T07:31:34.760Z,237.00
2022-12-15T07:32:19.852Z,237.00
2022-12-15T07:33:04.608Z,257.00
2022-12-15T07:33:50.377Z,246.00
2022-12-15T07:34:34.923Z,239.00
2022-12-15T07:35:20.427Z,239.00
2022-12-15T07:36:05.340Z,239.00
2022-12-15T07:36:52.488Z,239.00
2022-12-15T07:37:35.137Z,264.00
2022-12-15T07:38:20.204Z,256.00
2022-12-15T07:39:05.595Z,256.00
2022-12-15T07:39:50.317Z,256.00
2022-12-15T07:40:35.985Z,256.00
2022-12-15T07:41:20.641Z,256.00
2022-12-15T07:42:06.102Z,256.00
2022-12-15T07:42:51.256Z,256.00
2022-12-15T07:43:36.831Z,256.00
2022-12-15T07:44:21.803Z,256.00
2022-12-15T07:45:06.071Z,256.00
2022-12-15T07:45:51.715Z,224.00
2022-12-15T07:46:35.560Z,253.00
2022-12-15T07:47:20.880Z,253.00
2022-12-15T07:48:07.169Z,253.00
2022-12-15T07:48:51.505Z,253.00
2022-12-15T07:49:36.562Z,253.00
2022-12-15T07:50:21.412Z,253.00
2022-12-15T07:51:11.069Z,253.00
2022-12-15T07:51:52.287Z,253.00
2022-12-15T07:52:37.229Z,253.00
2022-12-15T07:53:21.239Z,253.00
2022-12-15T07:54:06.497Z,253.00
2022-12-15T07:54:52.200Z,253.00
2022-12-15T07:56:05.165Z,253.00
2022-12-15T07:56:22.170Z,253.00
2022-12-15T07:57:07.543Z,253.00
2022-12-15T07:57:52.697Z,253.00
2022-12-15T07:58:36.425Z,253.00
2022-12-15T07:59:21.684Z,253.00
2022-12-15T08:00:06.766Z,253.00
2022-12-15T08:00:52.892Z,253.00
2022-12-15T08:01:38.320Z,253.00
2022-12-15T08:02:23.188Z,253.00
2022-12-15T08:03:06.824Z,231.00
2022-12-15T08:03:51.925Z,244.00
2022-12-15T08:04:36.595Z,234.00
2022-12-15T08:05:22.049Z,234.00
2022-12-15T08:06:06.884Z,238.00
2022-12-15T08:06:53.371Z,238.00
2022-12-15T08:07:38.531Z,238.00
2022-12-15T08:08:23.381Z,238.00
2022-12-15T08:09:09.994Z,238.00
2022-12-15T08:09:53.289Z,238.00
2022-12-15T08:10:40.294Z,238.00
2022-12-15T08:11:22.788Z,238.00
2022-12-15T08:12:07.555Z,227.00
2022-12-15T08:12:52.549Z,214.00
2022-12-15T08:14:01.934Z,258.00
2022-12-15T08:14:22.887Z,274.00
2022-12-15T08:15:07.767Z,271.00
2022-12-15T08:15:53.219Z,236.00
2022-12-15T08:16:37.908Z,251.00
2022-12-15T08:17:23.154Z,237.00
2022-12-15T08:18:08.131Z,272.00
2022-12-15T08:18:52.940Z,277.00
2022-12-15T08:19:38.189Z,211.00
2022-12-15T08:20:23.180Z,251.00
2022-12-15T08:21:08.226Z,244.00
2022-12-15T08:21:53.179Z,235.00
2022-12-15T08:22:38.746Z,258.00
2022-12-15T08:23:23.284Z,263.00
2022-12-15T08:24:08.462Z,246.00
2022-12-15T08:24:53.502Z,235.00
2022-12-15T08:25:38.455Z,247.00
2022-12-15T08:26:29.814Z,214.00
2022-12-15T08:27:09.177Z,248.00
2022-12-15T08:27:53.743Z,242.00
2022-12-15T08:28:38.805Z,252.00
2022-12-15T08:30:09.200Z,253.00
2022-12-15T08:30:53.953Z,247.00
2022-12-15T08:31:39.134Z,240.00
2022-12-15T08:32:24.089Z,226.00
2022-12-15T08:33:09.019Z,238.00
2022-12-15T08:33:54.176Z,226.00
2022-12-15T08:34:39.337Z,248.00
2022-12-15T08:35:54.537Z,244.00
2022-12-15T08:36:09.039Z,235.00
2022-12-15T08:36:54.133Z,247.00
2022-12-15T08:37:39.643Z,237.00
2022-12-15T08:38:24.426Z,248.00
2022-12-15T08:39:09.673Z,261.00
2022-12-15T08:39:54.460Z,256.00
2022-12-15T08:40:39.687Z,256.00
2022-12-15T08:41:24.739Z,243.00
2022-12-15T08:42:09.914Z,250.00
2022-12-15T08:42:54.796Z,261.00
2022-12-15T08:43:45.871Z,282.00
2022-12-15T08:44:24.671Z,263.00
2022-12-15T08:45:10.137Z,258.00
2022-12-15T08:45:55.012Z,252.00
2022-12-15T08:46:39.975Z,267.00
2022-12-15T08:47:24.991Z,267.00
2022-12-15T08:48:09.947Z,248.00
2022-12-15T08:48:55.096Z,269.00
2022-12-15T08:49:40.052Z,272.00
2022-12-15T08:50:25.529Z,263.00
2022-12-15T08:51:10.389Z,276.00
2022-12-15T08:51:55.327Z,283.00
2022-12-15T08:52:40.594Z,249.00
2022-12-15T08:53:31.377Z,266.00
2022-12-15T08:54:10.339Z,238.00
2022-12-15T08:54:55.246Z,259.00
2022-12-15T08:55:40.604Z,259.00
2022-12-15T08:56:25.665Z,245.00
2022-12-15T08:57:10.529Z,242.00
2022-12-15T08:57:55.586Z,257.00
2022-12-15T08:58:41.650Z,264.00
2022-12-15T08:59:26.508Z,254.00
2022-12-15T09:00:10.755Z,250.00
2022-12-15T09:00:55.934Z,277.00
2022-12-15T09:01:41.375Z,228.00
2022-12-15T09:02:27.063Z,225.00
2022-12-15T09:03:11.172Z,254.00
2022-12-15T09:03:56.127Z,242.00
2022-12-15T09:04:41.207Z,241.00
2022-12-15T09:05:25.988Z,238.00
2022-12-15T09:06:11.402Z,273.00
2022-12-15T09:06:56.461Z,256.00
2022-12-15T09:07:41.405Z,261.00
2022-12-15T09:08:26.357Z,228.00
2022-12-15T09:09:11.527Z,243.00
2022-12-15T09:09:56.470Z,254.00
2022-12-15T09:10:41.912Z,262.00
2022-12-15T09:11:26.591Z,246.00
2022-12-15T09:12:11.541Z,225.00
2022-12-15T09:12:57.006Z,250.00
2022-12-15T09:13:41.857Z,242.00
2022-12-15T09:14:29.190Z,236.00
2022-12-15T09:15:11.773Z,246.00
2022-12-15T09:16:09.838Z,238.00
2022-12-15T09:16:42.387Z,238.00
2022-12-15T09:17:27.088Z,239.00
2022-12-15T09:18:12.714Z,250.00
2022-12-15T09:18:57.362Z,265.00
2022-12-15T09:19:42.209Z,243.00
2022-12-15T09:20:27.370Z,237.00
2022-12-15T09:21:12.526Z,252.00
2022-12-15T09:21:57.379Z,244.00
2022-12-15T09:22:42.639Z,239.00